Terminal Aerodrome Forecast
Issued by NWS

Home | Current Version | Previous Version | Text Only | Print | Product List | Glossary On
Versions: 1 2 3 4 5 6 7 8 9 10 11 12 13
464
FTUS46 KHNX 231738
TAFBFL
TAF
KBFL 231738Z 2318/2418 27004KT P6SM SKC
     FM232000 30011KT P6SM SKC
     FM240300 34008KT P6SM SKC
     FM241000 05004KT P6SM SKC=

USA.gov is the U.S. government's official web portal to all federal, state and local government web resources and services.